Time,TemperatureF,DewpointF,PressureIn,WindDirection,WindDirectionDegrees,WindSpeedMPH,WindSpeedGustMPH,Humidity,HourlyPrecipIn,Conditions,Clouds,dailyrainin,SoftwareType,DateUTC
2013-05-27 00:00:00,50.1,47.3,30.06,SSE,158,6.6,14.2,90,0.00,,,0.00,WUHU216HW,2013-05-27 05:00:00,
2013-05-27 00:05:00,50.1,47.3,30.06,ESE,113,0.0,12.2,90,0.00,,,0.00,WUHU216HW,2013-05-27 05:05:00,
2013-05-27 00:10:00,50.1,47.3,30.06,ESE,113,2.8,12.8,90,0.00,,,0.00,WUHU216HW,2013-05-27 05:10:00,
2013-05-27 00:15:00,50.1,47.3,30.06,ENE,68,6.6,7.5,90,0.00,,,0.00,WUHU216HW,2013-05-27 05:15:00,
2013-05-27 00:20:00,50.1,47.3,30.07,East,90,0.5,7.2,90,0.00,,,0.00,WUHU216HW,2013-05-27 05:20:00,
2013-05-27 00:25:00,50.0,47.1,30.06,NNE,23,5.0,5.0,90,0.00,,,0.00,WUHU216HW,2013-05-27 05:25:00,
2013-05-27 00:30:00,50.1,47.3,30.06,SW,225,2.4,4.8,90,0.00,,,0.00,WUHU216HW,2013-05-27 05:30:00,
2013-05-27 00:35:00,50.1,47.3,30.05,East,90,1.6,7.0,90,0.00,,,0.00,WUHU216HW,2013-05-27 05:35:00,
2013-05-27 00:40:00,50.1,47.3,30.05,ESE,113,4.0,7.0,90,0.00,,,0.00,WUHU216HW,2013-05-27 05:40:00,
2013-05-27 00:45:00,50.1,47.3,30.05,SE,135,3.1,6.6,90,0.00,,,0.00,WUHU216HW,2013-05-27 05:45:00,
2013-05-27 00:50:00,50.1,47.3,30.04,SE,135,0.0,6.4,90,0.00,,,0.00,WUHU216HW,2013-05-27 05:50:00,
2013-05-27 00:55:00,50.1,47.3,30.04,East,90,3.9,3.9,90,0.00,,,0.00,WUHU216HW,2013-05-27 05:55:00,
2013-05-27 01:00:00,50.1,47.3,30.04,ESE,103,8.0,13.6,90,0.00,,,0.00,WUHU216HW,2013-05-27 06:00:00,
2013-05-27 01:05:00,50.1,47.3,30.04,ESE,122,6.5,13.6,90,0.00,,,0.00,WUHU216HW,2013-05-27 06:05:00,
2013-05-27 01:10:00,50.0,47.1,30.03,East,90,9.8,9.8,90,0.00,,,0.00,WUHU216HW,2013-05-27 06:10:00,
2013-05-27 01:15:00,49.8,46.9,30.03,ESE,113,5.0,9.8,90,0.00,,,0.00,WUHU216HW,2013-05-27 06:15:00,
2013-05-27 01:20:00,49.8,46.9,30.03,East,90,5.0,9.8,90,0.00,,,0.00,WUHU216HW,2013-05-27 06:20:00,
2013-05-27 01:25:00,49.8,46.9,30.03,ESE,113,4.6,9.8,90,0.00,,,0.00,WUHU216HW,2013-05-27 06:25:00,
2013-05-27 01:30:00,49.8,46.9,30.02,NE,45,4.2,6.4,90,0.00,,,0.00,WUHU216HW,2013-05-27 06:30:00,
2013-05-27 01:35:00,49.8,46.9,30.01,East,90,6.1,6.4,90,0.00,,,0.00,WUHU216HW,2013-05-27 06:35:00,
2013-05-27 01:40:00,49.8,46.9,30.01,ESE,113,0.0,7.7,90,0.00,,,0.00,WUHU216HW,2013-05-27 06:40:00,
2013-05-27 01:45:00,49.8,46.9,30.02,ESE,113,8.6,8.6,90,0.00,,,0.00,WUHU216HW,2013-05-27 06:45:00,
2013-05-27 01:50:00,49.8,46.9,30.02,SE,135,9.5,9.5,90,0.00,,,0.00,WUHU216HW,2013-05-27 06:50:00,
2013-05-27 01:55:00,49.8,46.9,30.02,East,90,8.0,10.2,90,0.00,,,0.00,WUHU216HW,2013-05-27 06:55:00,
2013-05-27 02:00:00,49.8,46.9,30.03,ESE,113,7.2,10.6,90,0.00,,,0.00,WUHU216HW,2013-05-27 07:00:00,
2013-05-27 02:05:00,49.8,46.9,30.03,East,90,6.4,8.6,90,0.00,,,0.00,WUHU216HW,2013-05-27 07:05:00,
2013-05-27 02:10:00,49.8,46.9,30.03,ESE,103,6.5,8.0,90,0.00,,,0.00,WUHU216HW,2013-05-27 07:10:00,
2013-05-27 02:15:00,49.8,46.9,30.03,ESE,113,15.0,15.0,90,0.00,,,0.00,WUHU216HW,2013-05-27 07:15:00,
2013-05-27 02:20:00,49.8,46.9,30.03,ENE,68,2.4,14.4,90,0.00,,,0.00,WUHU216HW,2013-05-27 07:20:00,
2013-05-27 02:25:00,50.0,46.9,30.03,SE,135,6.4,14.4,90,0.00,,,0.00,WUHU216HW,2013-05-27 07:25:00,
2013-05-27 02:30:00,50.0,47.1,30.03,SE,135,10.4,12.6,90,0.00,,,0.00,WUHU216HW,2013-05-27 07:30:00,
2013-05-27 02:35:00,50.1,47.3,30.03,SE,135,0.0,10.4,90,0.00,,,0.00,WUHU216HW,2013-05-27 07:35:00,
2013-05-27 02:40:00,50.1,47.3,30.03,NE,45,0.5,10.4,90,0.00,,,0.00,WUHU216HW,2013-05-27 07:40:00,
2013-05-27 02:45:00,50.1,47.3,30.04,SE,135,11.2,11.2,90,0.00,,,0.00,WUHU216HW,2013-05-27 07:45:00,
2013-05-27 02:50:00,50.1,47.3,30.04,SSE,158,6.4,11.2,90,0.00,,,0.00,WUHU216HW,2013-05-27 07:50:00,
2013-05-27 02:55:00,50.1,47.3,30.03,ENE,68,11.5,11.5,90,0.00,,,0.00,WUHU216HW,2013-05-27 07:55:00,
2013-05-27 03:00:00,50.1,47.3,30.03,ESE,113,0.0,11.5,90,0.00,,,0.00,WUHU216HW,2013-05-27 08:00:00,
2013-05-27 03:05:00,50.1,47.3,30.02,East,90,4.2,11.5,90,0.00,,,0.00,WUHU216HW,2013-05-27 08:05:00,
2013-05-27 03:10:00,50.1,47.3,30.01,SE,135,6.4,6.4,90,0.00,,,0.00,WUHU216HW,2013-05-27 08:10:00,
2013-05-27 03:15:00,50.1,47.3,30.01,East,90,0.3,6.4,90,0.00,,,0.00,WUHU216HW,2013-05-27 08:15:00,
2013-05-27 03:20:00,50.1,47.3,30.01,SE,135,0.8,6.9,90,0.00,,,0.00,WUHU216HW,2013-05-27 08:20:00,
2013-05-27 03:25:00,50.1,47.3,30.01,SE,141,11.5,17.3,90,0.00,,,0.00,WUHU216HW,2013-05-27 08:25:00,
2013-05-27 03:30:00,50.1,47.3,30.01,ESE,113,5.3,17.3,90,0.00,,,0.00,WUHU216HW,2013-05-27 08:30:00,
2013-05-27 03:35:00,50.1,47.3,30.00,SE,135,2.0,9.4,90,0.00,,,0.00,WUHU216HW,2013-05-27 08:35:00,
2013-05-27 03:40:00,50.1,47.3,30.00,ESE,113,7.2,7.2,90,0.00,,,0.00,WUHU216HW,2013-05-27 08:40:00,
2013-05-27 03:45:00,50.1,47.3,30.00,East,90,15.0,15.0,90,0.00,,,0.00,WUHU216HW,2013-05-27 08:45:00,
2013-05-27 03:50:00,50.1,47.3,30.00,SE,135,6.9,15.6,90,0.00,,,0.00,WUHU216HW,2013-05-27 08:50:00,
2013-05-27 03:55:00,50.1,47.3,30.00,SSE,158,16.1,16.1,90,0.00,,,0.00,WUHU216HW,2013-05-27 08:55:00,
2013-05-27 04:00:00,50.1,47.3,29.99,South,173,4.1,16.1,90,0.00,,,0.00,WUHU216HW,2013-05-27 09:00:00,
2013-05-27 04:05:00,50.1,47.3,30.00,SSE,158,10.3,16.1,90,0.00,,,0.00,WUHU216HW,2013-05-27 09:05:00,
2013-05-27 04:10:00,50.1,47.3,30.00,ESE,113,10.0,10.3,90,0.00,,,0.00,WUHU216HW,2013-05-27 09:10:00,
2013-05-27 04:15:00,50.1,47.3,30.00,SE,135,8.0,10.0,90,0.00,,,0.00,WUHU216HW,2013-05-27 09:15:00,
2013-05-27 04:20:00,50.1,47.3,30.00,East,90,1.3,8.8,90,0.00,,,0.00,WUHU216HW,2013-05-27 09:20:00,
2013-05-27 04:25:00,50.1,47.3,30.01,SSE,158,6.4,8.8,90,0.00,,,0.00,WUHU216HW,2013-05-27 09:25:00,
2013-05-27 04:30:00,50.1,47.3,30.01,ESE,107,9.8,12.0,90,0.00,,,0.00,WUHU216HW,2013-05-27 09:30:00,
2013-05-27 04:35:00,50.1,47.3,30.01,SSE,158,9.6,11.5,90,0.00,,,0.00,WUHU216HW,2013-05-27 09:35:00,
2013-05-27 04:40:00,50.1,47.3,30.01,East,90,7.5,10.0,90,0.00,,,0.00,WUHU216HW,2013-05-27 09:40:00,
2013-05-27 04:45:00,50.1,47.3,30.01,SE,135,0.0,7.5,90,0.00,,,0.00,WUHU216HW,2013-05-27 09:45:00,
2013-05-27 04:50:00,50.1,47.3,30.01,SE,135,13.4,13.4,90,0.00,,,0.00,WUHU216HW,2013-05-27 09:50:00,
2013-05-27 04:55:00,50.1,47.3,30.01,ESE,113,6.6,12.8,90,0.00,,,0.00,WUHU216HW,2013-05-27 09:55:00,
2013-05-27 05:00:00,50.0,47.1,30.01,ENE,68,5.0,13.4,90,0.00,,,0.00,WUHU216HW,2013-05-27 10:00:00,
2013-05-27 05:05:00,50.1,47.3,30.01,ESE,113,8.9,8.9,90,0.00,,,0.00,WUHU216HW,2013-05-27 10:05:00,
2013-05-27 05:10:00,49.8,46.9,30.01,ESE,113,5.3,8.9,90,0.00,,,0.00,WUHU216HW,2013-05-27 10:10:00,
2013-05-27 05:15:00,49.8,47.2,30.01,East,90,8.5,9.4,91,0.00,,,0.00,WUHU216HW,2013-05-27 10:15:00,
2013-05-27 05:20:00,49.8,47.2,30.01,ESE,113,8.8,9.4,91,0.00,,,0.00,WUHU216HW,2013-05-27 10:20:00,
2013-05-27 05:25:00,49.8,46.9,30.01,East,90,4.8,9.6,90,0.00,,,0.00,WUHU216HW,2013-05-27 10:25:00,
2013-05-27 05:30:00,49.8,46.9,30.01,East,90,7.3,10.0,90,0.00,,,0.00,WUHU216HW,2013-05-27 10:30:00,
2013-05-27 05:35:00,50.0,47.4,30.01,ESE,113,5.9,7.4,91,0.00,,,0.00,WUHU216HW,2013-05-27 10:35:00,
2013-05-27 05:40:00,50.0,47.4,30.01,ESE,113,5.9,8.8,91,0.00,,,0.00,WUHU216HW,2013-05-27 10:40:00,
2013-05-27 05:45:00,49.8,47.2,30.00,ESE,113,10.9,10.9,91,0.00,,,0.00,WUHU216HW,2013-05-27 10:45:00,
2013-05-27 05:50:00,49.8,47.2,29.99,ESE,113,8.3,10.9,91,0.00,,,0.00,WUHU216HW,2013-05-27 10:50:00,
2013-05-27 05:55:00,49.8,47.2,29.99,East,90,12.5,13.1,91,0.00,,,0.00,WUHU216HW,2013-05-27 10:55:00,
2013-05-27 06:00:00,49.8,47.2,29.99,SE,135,12.5,13.1,91,0.00,,,0.00,WUHU216HW,2013-05-27 11:00:00,
2013-05-27 06:05:00,49.8,47.2,29.99,ESE,113,3.9,13.1,91,0.00,,,0.00,WUHU216HW,2013-05-27 11:05:00,
2013-05-27 06:09:00,49.8,47.2,29.99,East,90,7.5,13.1,91,0.00,,,0.00,WUHU216HW,2013-05-27 11:09:00,
2013-05-27 06:14:00,49.8,47.2,29.99,East,90,4.8,8.9,91,0.00,,,0.00,WUHU216HW,2013-05-27 11:14:00,
2013-05-27 06:19:00,49.8,47.2,30.00,ESE,113,4.8,8.0,91,0.00,,,0.00,WUHU216HW,2013-05-27 11:19:00,
2013-05-27 06:24:00,49.8,47.2,29.99,East,90,2.6,8.0,91,0.00,,,0.00,WUHU216HW,2013-05-27 11:24:00,
2013-05-27 06:29:00,49.8,47.2,29.99,East,90,3.1,7.4,91,0.00,,,0.00,WUHU216HW,2013-05-27 11:29:00,
2013-05-27 06:34:00,49.8,47.2,29.99,ESE,113,11.8,11.8,91,0.00,,,0.00,WUHU216HW,2013-05-27 11:34:00,
2013-05-27 06:39:00,49.8,47.2,29.99,ESE,113,7.5,12.3,91,0.00,,,0.00,WUHU216HW,2013-05-27 11:39:00,
2013-05-27 06:44:00,49.8,47.2,29.99,ESE,113,4.6,11.8,91,0.00,,,0.00,WUHU216HW,2013-05-27 11:44:00,
2013-05-27 06:49:00,50.0,47.4,29.99,ESE,113,2.6,8.5,91,0.00,,,0.00,WUHU216HW,2013-05-27 11:49:00,
2013-05-27 06:54:00,50.1,47.5,29.99,ESE,113,4.4,8.9,91,0.00,,,0.00,WUHU216HW,2013-05-27 11:54:00,
2013-05-27 06:59:00,50.1,47.5,29.99,East,90,8.9,13.4,91,0.00,,,0.00,WUHU216HW,2013-05-27 11:59:00,
2013-05-27 07:04:00,50.1,47.5,29.99,ESE,113,0.0,12.8,91,0.00,,,0.00,WUHU216HW,2013-05-27 12:04:00,
2013-05-27 07:09:00,50.1,47.5,29.98,East,90,12.6,12.8,91,0.00,,,0.00,WUHU216HW,2013-05-27 12:09:00,
2013-05-27 07:14:00,50.1,47.5,29.98,East,101,5.0,12.8,91,0.00,,,0.00,WUHU216HW,2013-05-27 12:14:00,
2013-05-27 07:19:00,50.1,47.5,29.98,NE,45,7.5,12.5,91,0.00,,,0.00,WUHU216HW,2013-05-27 12:19:00,
2013-05-27 07:24:00,50.1,47.5,29.98,ESE,113,5.3,9.1,91,0.00,,,0.00,WUHU216HW,2013-05-27 12:24:00,
2013-05-27 07:29:00,50.1,47.5,29.98,East,90,6.9,9.1,91,0.00,,,0.00,WUHU216HW,2013-05-27 12:29:00,
2013-05-27 07:34:00,50.1,47.5,29.98,ESE,113,10.9,11.6,91,0.00,,,0.00,WUHU216HW,2013-05-27 12:34:00,
2013-05-27 07:39:00,50.1,47.5,29.98,East,90,6.4,11.6,91,0.00,,,0.00,WUHU216HW,2013-05-27 12:39:00,
2013-05-27 07:44:00,50.3,47.7,29.98,ESE,113,10.2,10.4,91,0.00,,,0.00,WUHU216HW,2013-05-27 12:44:00,
2013-05-27 07:49:00,50.3,47.7,29.98,ESE,113,10.3,12.5,91,0.00,,,0.00,WUHU216HW,2013-05-27 12:49:00,
2013-05-27 07:54:00,50.1,47.5,29.98,SE,135,3.9,12.5,91,0.00,,,0.00,WUHU216HW,2013-05-27 12:54:00,
2013-05-27 07:59:00,50.3,47.7,29.97,ESE,113,9.1,9.1,91,0.00,,,0.00,WUHU216HW,2013-05-27 12:59:00,
2013-05-27 08:04:00,50.3,47.7,29.97,ESE,113,7.2,8.8,91,0.00,,,0.00,WUHU216HW,2013-05-27 13:04:00,
2013-05-27 08:09:00,50.3,47.7,29.97,East,90,10.2,10.2,91,0.00,,,0.00,WUHU216HW,2013-05-27 13:09:00,
2013-05-27 08:14:00,50.1,47.5,29.97,East,90,8.3,10.2,91,0.00,,,0.00,WUHU216HW,2013-05-27 13:14:00,
2013-05-27 08:19:00,50.3,47.7,29.98,East,90,7.8,10.0,91,0.00,,,0.00,WUHU216HW,2013-05-27 13:19:00,
2013-05-27 08:24:00,50.5,47.9,29.98,East,90,10.3,10.3,91,0.00,,,0.00,WUHU216HW,2013-05-27 13:24:00,
2013-05-27 08:29:00,50.3,47.7,29.98,ESE,113,3.6,10.3,91,0.00,,,0.00,WUHU216HW,2013-05-27 13:29:00,
2013-05-27 08:34:00,50.3,47.7,29.98,East,90,8.8,9.8,91,0.00,,,0.00,WUHU216HW,2013-05-27 13:34:00,
2013-05-27 08:39:00,50.3,47.7,29.98,ESE,113,5.0,10.9,91,0.00,,,0.00,WUHU216HW,2013-05-27 13:39:00,
2013-05-27 08:44:00,50.5,47.9,29.98,East,90,2.4,10.9,91,0.00,,,0.00,WUHU216HW,2013-05-27 13:44:00,
2013-05-27 08:49:00,50.5,47.9,29.98,SE,135,7.4,9.1,91,0.00,,,0.00,WUHU216HW,2013-05-27 13:49:00,
2013-05-27 08:54:00,50.7,48.1,29.98,East,90,10.3,11.1,91,0.00,,,0.00,WUHU216HW,2013-05-27 13:54:00,
2013-05-27 08:59:00,50.7,48.1,29.98,ESE,103,4.6,11.4,91,0.00,,,0.00,WUHU216HW,2013-05-27 13:59:00,
2013-05-27 09:04:00,50.7,48.1,29.99,East,90,6.1,11.4,91,0.00,,,0.00,WUHU216HW,2013-05-27 14:04:00,
2013-05-27 09:09:00,50.7,48.1,29.98,SE,135,11.2,16.1,91,0.00,,,0.00,WUHU216HW,2013-05-27 14:09:00,
2013-05-27 09:14:00,50.7,48.1,29.97,ESE,113,7.7,16.1,91,0.00,,,0.00,WUHU216HW,2013-05-27 14:14:00,
2013-05-27 09:19:00,51.0,48.4,29.97,East,90,8.5,16.1,91,0.00,,,0.00,WUHU216HW,2013-05-27 14:19:00,
2013-05-27 09:24:00,51.0,48.4,29.97,East,90,9.6,16.1,91,0.00,,,0.00,WUHU216HW,2013-05-27 14:24:00,
2013-05-27 09:29:00,51.2,48.6,29.97,ESE,113,10.3,11.1,91,0.00,,,0.00,WUHU216HW,2013-05-27 14:29:00,
2013-05-27 09:34:00,51.4,48.8,29.97,ESE,111,4.9,12.3,91,0.00,,,0.00,WUHU216HW,2013-05-27 14:34:00,
2013-05-27 09:39:00,51.4,48.8,29.98,East,90,8.6,12.3,91,0.00,,,0.00,WUHU216HW,2013-05-27 14:39:00,
2013-05-27 09:44:00,51.4,48.8,29.98,East,90,12.0,12.0,91,0.00,,,0.00,WUHU216HW,2013-05-27 14:44:00,
2013-05-27 09:49:00,51.6,49.0,29.98,East,90,9.8,11.5,91,0.00,,,0.00,WUHU216HW,2013-05-27 14:49:00,
2013-05-27 09:54:00,51.6,49.0,29.98,East,90,14.4,14.4,91,0.00,,,0.00,WUHU216HW,2013-05-27 14:54:00,
2013-05-27 09:59:00,51.6,49.0,29.98,East,90,11.2,14.4,91,0.00,,,0.00,WUHU216HW,2013-05-27 14:59:00,
2013-05-27 10:04:00,51.6,49.0,29.98,East,90,6.4,14.4,91,0.00,,,0.00,WUHU216HW,2013-05-27 15:04:00,
2013-05-27 10:09:00,51.6,49.0,29.98,East,90,8.5,13.7,91,0.00,,,0.00,WUHU216HW,2013-05-27 15:09:00,
2013-05-27 10:14:00,51.9,49.3,29.98,East,90,13.3,13.3,91,0.00,,,0.00,WUHU216HW,2013-05-27 15:14:00,
2013-05-27 10:19:00,51.9,49.3,29.98,ESE,113,12.8,13.3,91,0.00,,,0.00,WUHU216HW,2013-05-27 15:19:00,
2013-05-27 10:24:00,51.9,49.3,29.98,ESE,113,5.3,13.9,91,0.00,,,0.00,WUHU216HW,2013-05-27 15:24:00,
2013-05-27 10:29:00,51.9,49.3,29.98,ESE,113,6.9,13.4,91,0.00,,,0.00,WUHU216HW,2013-05-27 15:29:00,
2013-05-27 10:34:00,52.3,49.7,29.97,East,99,7.3,12.0,91,0.00,,,0.00,WUHU216HW,2013-05-27 15:34:00,
2013-05-27 10:39:00,52.5,49.9,29.96,ESE,113,8.8,10.4,91,0.00,,,0.00,WUHU216HW,2013-05-27 15:39:00,
2013-05-27 10:44:00,52.8,50.2,29.96,East,90,13.1,16.1,91,0.00,,,0.00,WUHU216HW,2013-05-27 15:44:00,
2013-05-27 10:49:00,53.2,50.3,29.96,NNE,23,2.6,16.1,90,0.00,,,0.00,WUHU216HW,2013-05-27 15:49:00,
2013-05-27 10:54:00,53.2,50.3,29.97,ENE,68,9.1,13.1,90,0.00,,,0.00,WUHU216HW,2013-05-27 15:54:00,
2013-05-27 10:59:00,53.0,50.1,29.98,ESE,113,5.3,10.4,90,0.00,,,0.00,WUHU216HW,2013-05-27 15:59:00,
2013-05-27 11:04:00,52.8,50.0,29.98,ESE,113,3.1,10.7,90,0.00,,,0.00,WUHU216HW,2013-05-27 16:04:00,
2013-05-27 11:09:00,53.2,50.0,29.97,East,90,9.1,10.7,89,0.00,,,0.00,WUHU216HW,2013-05-27 16:09:00,
2013-05-27 11:14:00,53.2,50.0,29.96,ESE,113,10.2,12.8,89,0.00,,,0.00,WUHU216HW,2013-05-27 16:14:00,
2013-05-27 11:19:00,53.4,50.2,29.96,East,90,8.0,13.4,89,0.00,,,0.00,WUHU216HW,2013-05-27 16:19:00,
2013-05-27 11:24:00,53.4,50.2,29.96,East,90,8.3,10.2,89,0.00,,,0.00,WUHU216HW,2013-05-27 16:24:00,
2013-05-27 11:29:00,53.7,50.5,29.97,ESE,113,9.2,12.3,89,0.00,,,0.00,WUHU216HW,2013-05-27 16:29:00,
2013-05-27 11:34:00,53.7,50.2,29.97,ESE,113,0.0,11.8,88,0.00,,,0.00,WUHU216HW,2013-05-27 16:34:00,
2013-05-27 11:39:00,53.9,50.4,29.97,ESE,113,6.6,8.0,88,0.00,,,0.00,WUHU216HW,2013-05-27 16:39:00,
2013-05-27 11:44:00,53.9,50.6,29.97,SE,135,8.8,8.8,88,0.00,,,0.00,WUHU216HW,2013-05-27 16:44:00,
2013-05-27 11:49:00,53.9,50.4,29.96,ESE,113,6.6,8.8,88,0.00,,,0.00,WUHU216HW,2013-05-27 16:49:00,
2013-05-27 11:54:00,53.9,50.4,29.96,ESE,113,5.0,8.8,88,0.00,,,0.00,WUHU216HW,2013-05-27 16:54:00,
2013-05-27 11:59:00,54.3,50.6,29.96,East,90,7.7,7.7,88,0.00,,,0.00,WUHU216HW,2013-05-27 16:59:00,
2013-05-27 12:04:00,54.8,51.0,29.96,ESE,113,4.6,7.7,87,0.00,,,0.00,WUHU216HW,2013-05-27 17:04:00,
2013-05-27 12:09:00,55.2,51.3,29.95,ESE,113,6.1,7.7,87,0.00,,,0.00,WUHU216HW,2013-05-27 17:09:00,
2013-05-27 12:14:00,56.1,51.9,29.95,East,90,3.7,7.4,86,0.00,,,0.00,WUHU216HW,2013-05-27 17:14:00,
2013-05-27 12:19:00,56.4,51.9,29.95,East,90,7.1,7.8,85,0.00,,,0.00,WUHU216HW,2013-05-27 17:19:00,
2013-05-27 12:24:00,57.0,52.1,29.95,East,90,3.6,8.6,84,0.00,,,0.00,WUHU216HW,2013-05-27 17:24:00,
2013-05-27 12:29:00,57.5,52.4,29.95,East,90,4.8,8.3,83,0.00,,,0.00,WUHU216HW,2013-05-27 17:29:00,
2013-05-27 12:34:00,57.9,52.7,29.95,East,90,5.9,8.5,83,0.00,,,0.00,WUHU216HW,2013-05-27 17:34:00,
2013-05-27 12:39:00,57.7,52.5,29.95,East,90,7.2,8.5,83,0.00,,,0.00,WUHU216HW,2013-05-27 17:39:00,
2013-05-27 12:44:00,57.7,52.2,29.95,East,90,5.9,10.7,82,0.00,,,0.00,WUHU216HW,2013-05-27 17:44:00,
2013-05-27 12:49:00,57.0,51.5,29.95,East,90,7.2,10.7,82,0.00,,,0.00,WUHU216HW,2013-05-27 17:49:00,
2013-05-27 12:54:00,56.8,51.6,29.95,East,90,4.1,7.5,83,0.00,,,0.00,WUHU216HW,2013-05-27 17:54:00,
2013-05-27 12:59:00,56.4,51.6,29.96,East,90,8.6,8.6,84,0.00,,,0.00,WUHU216HW,2013-05-27 17:59:00,
2013-05-27 13:04:00,56.4,51.6,29.96,East,101,7.6,8.6,84,0.00,,,0.00,WUHU216HW,2013-05-27 18:04:00,
2013-05-27 13:09:00,56.3,51.4,29.95,ENE,68,5.3,8.6,84,0.00,,,0.00,WUHU216HW,2013-05-27 18:09:00,
2013-05-27 13:14:00,56.3,51.4,29.95,East,90,8.9,8.9,84,0.00,,,0.00,WUHU216HW,2013-05-27 18:14:00,
2013-05-27 13:19:00,56.3,51.4,29.95,East,90,5.3,8.9,84,0.00,,,0.00,WUHU216HW,2013-05-27 18:19:00,
2013-05-27 13:24:00,56.4,51.6,29.94,East,90,0.0,8.5,84,0.00,,,0.00,WUHU216HW,2013-05-27 18:24:00,
2013-05-27 13:29:00,56.4,51.4,29.94,East,90,8.4,8.4,84,0.00,,,0.00,WUHU216HW,2013-05-27 18:29:00,
2013-05-27 13:34:00,56.1,51.2,29.95,ESE,105,5.6,8.4,84,0.00,,,0.00,WUHU216HW,2013-05-27 18:34:00,
2013-05-27 13:39:00,55.9,51.4,29.95,ESE,113,2.4,8.0,85,0.00,,,0.00,WUHU216HW,2013-05-27 18:39:00,
2013-05-27 13:44:00,56.1,51.6,29.95,ESE,113,3.1,4.6,85,0.00,,,0.00,WUHU216HW,2013-05-27 18:44:00,
2013-05-27 13:49:00,56.1,51.6,29.95,East,93,5.9,6.6,85,0.00,,,0.00,WUHU216HW,2013-05-27 18:49:00,
2013-05-27 13:53:00,56.3,51.8,29.96,East,90,4.8,6.6,85,0.00,,,0.00,WUHU216HW,2013-05-27 18:53:00,
2013-05-27 13:58:00,56.8,52.0,29.95,ESE,102,6.9,7.5,84,0.00,,,0.00,WUHU216HW,2013-05-27 18:58:00,
2013-05-27 14:03:00,57.0,52.1,29.95,East,90,8.4,8.4,84,0.00,,,0.00,WUHU216HW,2013-05-27 19:03:00,
2013-05-27 14:08:00,57.3,52.2,29.95,East,90,2.8,9.1,83,0.00,,,0.00,WUHU216HW,2013-05-27 19:08:00,
2013-05-27 14:13:00,57.5,52.4,29.94,ESE,102,11.7,12.0,83,0.00,,,0.00,WUHU216HW,2013-05-27 19:13:00,
2013-05-27 14:18:00,57.7,52.5,29.95,ESE,113,0.0,11.5,83,0.00,,,0.00,WUHU216HW,2013-05-27 19:18:00,
2013-05-27 14:23:00,58.8,53.3,29.94,SE,135,1.6,10.9,82,0.00,,,0.00,WUHU216HW,2013-05-27 19:23:00,
2013-05-27 14:28:00,60.0,53.9,29.95,East,90,0.0,1.6,80,0.00,,,0.00,WUHU216HW,2013-05-27 19:28:00,
2013-05-27 14:33:00,59.7,53.2,29.94,East,84,4.4,5.5,79,0.00,,,0.00,WUHU216HW,2013-05-27 19:33:00,
2013-05-27 14:38:00,59.7,53.6,29.94,East,90,2.8,5.5,80,0.00,,,0.00,WUHU216HW,2013-05-27 19:38:00,
2013-05-27 14:43:00,59.5,53.4,29.95,ESE,113,4.1,10.0,80,0.00,,,0.00,WUHU216HW,2013-05-27 19:43:00,
2013-05-27 14:48:00,59.5,53.4,29.94,ESE,113,0.0,9.6,80,0.00,,,0.00,WUHU216HW,2013-05-27 19:48:00,
2013-05-27 14:53:00,59.5,53.4,29.94,East,90,1.0,8.4,80,0.00,,,0.00,WUHU216HW,2013-05-27 19:53:00,
2013-05-27 14:58:00,59.9,53.7,29.94,ESE,113,0.0,5.8,80,0.00,,,0.00,WUHU216HW,2013-05-27 19:58:00,
2013-05-27 15:03:00,60.2,54.1,29.95,SSE,158,1.3,5.5,80,0.00,,,0.00,WUHU216HW,2013-05-27 20:03:00,
2013-05-27 15:08:00,60.9,54.4,29.95,East,90,0.0,4.0,79,0.00,,,0.00,WUHU216HW,2013-05-27 20:08:00,
2013-05-27 15:13:00,62.2,55.4,29.95,SSE,158,0.0,4.0,77,0.00,,,0.00,WUHU216HW,2013-05-27 20:13:00,
2013-05-27 15:18:00,62.7,55.4,29.95,SSE,158,0.0,2.6,77,0.00,,,0.00,WUHU216HW,2013-05-27 20:18:00,
2013-05-27 15:23:00,62.6,54.5,29.95,SSE,158,8.3,8.3,75,0.00,,,0.00,WUHU216HW,2013-05-27 20:23:00,
2013-05-27 15:28:00,61.8,54.2,29.95,ESE,113,0.0,8.3,76,0.00,,,0.00,WUHU216HW,2013-05-27 20:28:00,
2013-05-27 15:33:00,61.5,53.8,29.94,ENE,68,1.0,8.3,76,0.00,,,0.00,WUHU216HW,2013-05-27 20:33:00,
2013-05-27 15:38:00,60.6,53.0,29.95,SSE,158,5.0,5.0,76,0.00,,,0.00,WUHU216HW,2013-05-27 20:38:00,
2013-05-27 15:43:00,60.6,53.0,29.94,SSE,158,5.0,5.0,76,0.00,,,0.00,WUHU216HW,2013-05-27 20:43:00,
2013-05-27 15:48:00,60.6,53.0,29.94,SSE,158,4.8,4.8,76,0.00,,,0.00,WUHU216HW,2013-05-27 20:48:00,
2013-05-27 16:11:00,66.0,57.4,29.93,ESE,113,0.0,0.0,74,0.00,,,0.00,WUHU216HW,2013-05-27 21:11:00,
2013-05-27 16:16:00,67.6,57.9,29.93,SE,135,2.4,3.1,71,0.00,,,0.00,WUHU216HW,2013-05-27 21:16:00,
2013-05-27 16:21:00,68.1,57.6,29.93,SE,135,0.0,3.1,69,0.00,,,0.00,WUHU216HW,2013-05-27 21:21:00,
2013-05-27 16:26:00,67.2,55.9,29.93,ESE,113,4.1,4.1,67,0.00,,,0.00,WUHU216HW,2013-05-27 21:26:00,
2013-05-27 16:31:00,66.7,55.8,29.92,ESE,113,3.9,4.1,68,0.00,,,0.00,WUHU216HW,2013-05-27 21:31:00,
2013-05-27 16:36:00,66.7,55.8,29.92,ESE,113,3.9,4.1,68,0.00,,,0.00,WUHU216HW,2013-05-27 21:36:00,
2013-05-27 16:41:00,66.7,55.8,29.92,ESE,113,3.9,3.9,68,0.00,,,0.00,WUHU216HW,2013-05-27 21:41:00,
2013-05-27 16:46:00,66.7,55.8,29.92,East,90,8.5,9.5,68,0.00,,,0.00,WUHU216HW,2013-05-27 21:46:00,
2013-05-27 16:51:00,66.7,56.6,29.92,East,90,7.5,9.5,70,0.00,,,0.00,WUHU216HW,2013-05-27 21:51:00,
2013-05-27 16:56:00,66.7,56.6,29.92,East,90,7.5,7.5,70,0.00,,,0.00,WUHU216HW,2013-05-27 21:56:00,
2013-05-27 17:01:00,66.7,56.6,29.93,East,90,7.5,7.5,70,0.00,,,0.00,WUHU216HW,2013-05-27 22:01:00,
2013-05-27 17:06:00,62.9,54.1,29.93,East,90,7.5,7.5,73,0.00,,,0.00,WUHU216HW,2013-05-27 22:06:00,
2013-05-27 17:11:00,62.9,54.1,29.93,SSE,158,0.0,7.5,73,0.00,,,0.00,WUHU216HW,2013-05-27 22:11:00,
2013-05-27 17:16:00,62.9,54.1,29.93,SSE,158,0.0,0.0,73,0.00,,,0.00,WUHU216HW,2013-05-27 22:16:00,
2013-05-27 17:21:00,61.8,53.8,29.93,ESE,113,4.8,4.8,75,0.00,,,0.00,WUHU216HW,2013-05-27 22:21:00,
2013-05-27 17:26:00,60.9,53.4,29.93,SE,135,6.1,6.1,76,0.00,,,0.00,WUHU216HW,2013-05-27 22:26:00,
2013-05-27 17:31:00,60.4,53.4,29.93,SSE,158,6.1,6.1,77,0.00,,,0.00,WUHU216HW,2013-05-27 22:31:00,
2013-05-27 17:36:00,59.7,52.8,29.93,SSE,148,4.1,6.4,78,0.00,,,0.00,WUHU216HW,2013-05-27 22:36:00,
2013-05-27 17:41:00,59.7,52.8,29.93,ESE,113,1.9,6.4,78,0.00,,,0.00,WUHU216HW,2013-05-27 22:41:00,
2013-05-27 17:46:00,59.5,53.0,29.93,East,90,2.5,3.6,79,0.00,,,0.00,WUHU216HW,2013-05-27 22:46:00,
2013-05-27 17:51:00,59.3,53.2,29.93,East,90,2.8,3.9,80,0.00,,,0.00,WUHU216HW,2013-05-27 22:51:00,
2013-05-27 17:56:00,58.8,52.7,29.93,ESE,113,0.0,3.9,80,0.00,,,0.00,WUHU216HW,2013-05-27 22:56:00,
2013-05-27 18:01:00,58.8,52.7,29.93,SSE,158,0.0,1.6,80,0.00,,,0.00,WUHU216HW,2013-05-27 23:01:00,
2013-05-27 18:06:00,58.8,52.7,29.92,SSE,158,6.1,6.1,80,0.00,,,0.00,WUHU216HW,2013-05-27 23:06:00,
2013-05-27 18:11:00,58.8,52.7,29.92,SE,135,0.0,6.1,80,0.00,,,0.00,WUHU216HW,2013-05-27 23:11:00,
2013-05-27 18:16:00,58.8,52.7,29.91,ESE,113,0.0,6.1,80,0.00,,,0.00,WUHU216HW,2013-05-27 23:16:00,
2013-05-27 18:21:00,59.3,53.2,29.90,ESE,113,0.0,0.0,80,0.00,,,0.00,WUHU216HW,2013-05-27 23:21:00,
2013-05-27 18:26:00,59.3,53.2,29.90,ESE,113,0.0,0.0,80,0.00,,,0.00,WUHU216HW,2013-05-27 23:26:00,
2013-05-27 18:31:00,59.3,53.2,29.90,ESE,113,0.0,0.0,80,0.00,,,0.00,WUHU216HW,2013-05-27 23:31:00,
2013-05-27 18:36:00,59.3,53.2,29.90,ESE,113,0.0,0.0,80,0.00,,,0.00,WUHU216HW,2013-05-27 23:36:00,
2013-05-27 19:07:00,57.3,51.9,29.89,ESE,113,0.0,0.0,82,0.00,,,0.00,WUHU216HW,2013-05-28 00:07:00,
2013-05-27 19:12:00,57.3,52.2,29.89,SE,135,5.0,5.0,83,0.00,,,0.00,WUHU216HW,2013-05-28 00:12:00,
2013-05-27 19:17:00,56.8,51.8,29.89,East,90,4.4,7.5,84,0.00,,,0.00,WUHU216HW,2013-05-28 00:17:00,
2013-05-27 19:22:00,56.8,52.0,29.89,ESE,113,5.9,7.2,84,0.00,,,0.00,WUHU216HW,2013-05-28 00:22:00,
2013-05-27 19:27:00,56.8,52.0,29.89,ENE,68,2.4,7.0,84,0.00,,,0.00,WUHU216HW,2013-05-28 00:27:00,
2013-05-27 19:32:00,56.4,51.6,29.89,ESE,113,6.6,8.3,84,0.00,,,0.00,WUHU216HW,2013-05-28 00:32:00,
2013-05-27 19:37:00,56.4,51.6,29.89,East,90,2.5,8.6,84,0.00,,,0.00,WUHU216HW,2013-05-28 00:37:00,
2013-05-27 19:42:00,56.4,51.6,29.89,ENE,68,4.0,7.2,84,0.00,,,0.00,WUHU216HW,2013-05-28 00:42:00,
2013-05-27 19:47:00,56.4,51.6,29.89,East,90,5.9,7.2,84,0.00,,,0.00,WUHU216HW,2013-05-28 00:47:00,
2013-05-27 19:52:00,56.3,51.8,29.90,East,90,0.0,5.9,85,0.00,,,0.00,WUHU216HW,2013-05-28 00:52:00,
2013-05-27 19:57:00,56.3,51.8,29.90,ESE,113,0.0,2.4,85,0.00,,,0.00,WUHU216HW,2013-05-28 00:57:00,
2013-05-27 20:02:00,56.3,51.8,29.90,ESE,113,2.6,2.6,85,0.00,,,0.00,WUHU216HW,2013-05-28 01:02:00,
2013-05-27 20:07:00,56.3,51.8,29.90,SSE,158,0.0,2.6,85,0.00,,,0.00,WUHU216HW,2013-05-28 01:07:00,
2013-05-27 20:12:00,56.3,51.8,29.91,ESE,113,6.9,6.9,85,0.00,,,0.00,WUHU216HW,2013-05-28 01:12:00,
2013-05-27 20:17:00,56.1,51.6,29.90,SE,135,2.8,6.9,85,0.00,,,0.00,WUHU216HW,2013-05-28 01:17:00,
2013-05-27 20:22:00,56.1,51.6,29.90,East,90,3.0,6.9,85,0.00,,,0.00,WUHU216HW,2013-05-28 01:22:00,
2013-05-27 20:27:00,56.1,51.6,29.89,SE,135,1.8,5.5,85,0.00,,,0.00,WUHU216HW,2013-05-28 01:27:00,
2013-05-27 20:32:00,55.9,51.4,29.89,ESE,113,1.0,5.5,85,0.00,,,0.00,WUHU216HW,2013-05-28 01:32:00,
2013-05-27 20:37:00,55.9,51.4,29.88,East,90,9.1,9.1,85,0.00,,,0.00,WUHU216HW,2013-05-28 01:37:00,
2013-05-27 20:42:00,55.9,51.7,29.88,SE,124,6.8,9.1,86,0.00,,,0.00,WUHU216HW,2013-05-28 01:42:00,
2013-05-27 20:47:00,55.7,51.5,29.87,East,90,2.5,7.3,86,0.00,,,0.00,WUHU216HW,2013-05-28 01:47:00,
2013-05-27 20:52:00,55.5,51.4,29.87,SE,135,3.6,7.3,86,0.00,,,0.00,WUHU216HW,2013-05-28 01:52:00,
2013-05-27 20:57:00,55.5,51.4,29.87,East,90,4.4,4.4,86,0.00,,,0.00,WUHU216HW,2013-05-28 01:57:00,
2013-05-27 21:02:00,55.5,51.4,29.87,ESE,113,7.7,8.3,86,0.00,,,0.00,WUHU216HW,2013-05-28 02:02:00,
2013-05-27 21:07:00,55.5,51.4,29.86,East,90,10.2,10.2,86,0.00,,,0.00,WUHU216HW,2013-05-28 02:07:00,
2013-05-27 21:12:00,55.4,51.2,29.86,East,90,9.8,10.2,86,0.00,,,0.00,WUHU216HW,2013-05-28 02:12:00,
2013-05-27 21:17:00,55.4,51.2,29.86,ESE,113,2.4,9.8,86,0.00,,,0.00,WUHU216HW,2013-05-28 02:17:00,
2013-05-27 21:22:00,55.2,51.3,29.87,ENE,68,0.7,9.8,87,0.00,,,0.00,WUHU216HW,2013-05-28 02:22:00,
2013-05-27 21:27:00,55.2,51.3,29.87,ESE,113,6.6,6.6,87,0.00,,,0.00,WUHU216HW,2013-05-28 02:27:00,
2013-05-27 21:32:00,55.2,51.3,29.86,ESE,113,9.5,9.8,87,0.00,,,0.00,WUHU216HW,2013-05-28 02:32:00,
2013-05-27 21:37:00,55.2,51.3,29.87,ESE,113,9.1,9.4,87,0.00,,,0.00,WUHU216HW,2013-05-28 02:37:00,
2013-05-27 21:42:00,55.2,51.3,29.87,ENE,68,1.6,9.1,87,0.00,,,0.00,WUHU216HW,2013-05-28 02:42:00,
2013-05-27 21:47:00,55.2,51.3,29.88,East,90,9.4,9.4,87,0.00,,,0.00,WUHU216HW,2013-05-28 02:47:00,
2013-05-27 21:52:00,55.2,51.3,29.88,ESE,113,6.6,9.4,87,0.00,,,0.00,WUHU216HW,2013-05-28 02:52:00,
2013-05-27 21:57:00,55.2,51.3,29.88,ESE,113,6.4,9.1,87,0.00,,,0.00,WUHU216HW,2013-05-28 02:57:00,
2013-05-27 22:02:00,55.2,51.3,29.88,ENE,68,7.7,9.1,87,0.00,,,0.00,WUHU216HW,2013-05-28 03:02:00,
2013-05-27 22:07:00,55.2,51.6,29.88,SE,135,4.8,7.7,88,0.00,,,0.00,WUHU216HW,2013-05-28 03:07:00,
2013-05-27 22:12:00,55.2,51.3,29.89,SSE,158,6.1,6.1,87,0.00,,,0.00,WUHU216HW,2013-05-28 03:12:00,
2013-05-27 22:17:00,55.2,51.3,29.89,ESE,113,8.0,8.0,87,0.00,,,0.00,WUHU216HW,2013-05-28 03:17:00,
2013-05-27 22:22:00,55.2,51.6,29.89,SE,135,0.0,8.0,88,0.00,,,0.00,WUHU216HW,2013-05-28 03:22:00,
2013-05-27 22:27:00,55.2,51.6,29.89,SW,225,0.0,12.6,88,0.00,,,0.00,WUHU216HW,2013-05-28 03:27:00,
2013-05-27 22:32:00,55.2,51.6,29.89,East,90,0.0,12.6,88,0.00,,,0.00,WUHU216HW,2013-05-28 03:32:00,
2013-05-27 22:37:00,55.4,51.8,29.88,ESE,113,4.6,4.6,88,0.00,,,0.00,WUHU216HW,2013-05-28 03:37:00,
2013-05-27 22:42:00,55.4,51.8,29.88,East,90,5.5,5.5,88,0.00,,,0.00,WUHU216HW,2013-05-28 03:42:00,
2013-05-27 22:47:00,55.5,52.0,29.88,ESE,113,0.0,6.6,88,0.00,,,0.00,WUHU216HW,2013-05-28 03:47:00,
2013-05-27 22:52:00,55.5,52.0,29.87,SE,135,8.5,8.5,88,0.00,,,0.00,WUHU216HW,2013-05-28 03:52:00,
2013-05-27 22:57:00,55.5,51.7,29.87,East,90,6.4,8.5,87,0.00,,,0.00,WUHU216HW,2013-05-28 03:57:00,
2013-05-27 23:01:00,55.5,51.7,29.87,East,90,6.6,9.4,87,0.00,,,0.00,WUHU216HW,2013-05-28 04:01:00,
2013-05-27 23:06:00,55.5,51.7,29.88,ESE,113,12.0,12.0,87,0.00,,,0.00,WUHU216HW,2013-05-28 04:06:00,
2013-05-27 23:11:00,55.5,51.7,29.88,ESE,113,2.1,12.0,87,0.00,,,0.00,WUHU216HW,2013-05-28 04:11:00,
2013-05-27 23:16:00,55.7,51.9,29.88,ESE,113,1.6,11.5,87,0.00,,,0.00,WUHU216HW,2013-05-28 04:16:00,
2013-05-27 23:21:00,55.7,51.9,29.88,East,90,0.0,2.1,87,0.00,,,0.00,WUHU216HW,2013-05-28 04:21:00,
2013-05-27 23:26:00,55.7,51.9,29.88,SSE,158,0.0,5.0,87,0.00,,,0.00,WUHU216HW,2013-05-28 04:26:00,
2013-05-27 23:31:00,55.7,51.9,29.88,SSE,158,1.0,5.0,87,0.00,,,0.00,WUHU216HW,2013-05-28 04:31:00,
2013-05-27 23:36:00,55.7,51.9,29.88,SE,135,8.9,8.9,87,0.00,,,0.00,WUHU216HW,2013-05-28 04:36:00,
2013-05-27 23:41:00,55.7,51.9,29.89,SSE,158,5.8,10.9,87,0.00,,,0.00,WUHU216HW,2013-05-28 04:41:00,
2013-05-27 23:46:00,55.7,51.9,29.89,SSE,158,5.3,10.4,87,0.00,,,0.00,WUHU216HW,2013-05-28 04:46:00,
2013-05-27 23:51:00,55.7,51.5,29.90,South,180,3.1,7.0,86,0.00,,,0.00,WUHU216HW,2013-05-28 04:51:00,
2013-05-27 23:56:00,55.5,51.4,29.90,South,180,4.2,5.9,86,0.00,,,0.00,WUHU216HW,2013-05-28 04:56:00,